createdAt,value
2018-03-23T00:04:22.952Z,75.30
2018-03-23T00:09:25.617Z,75.50
2018-03-23T00:14:28.280Z,76.90
2018-03-23T00:19:31.713Z,77.40
2018-03-23T00:24:34.338Z,76.80
2018-03-23T00:29:36.984Z,76.70
2018-03-23T00:34:39.618Z,75.30
2018-03-23T00:39:55.853Z,74.50
2018-03-23T00:44:58.489Z,73.30
2018-03-23T00:50:01.137Z,72.40
2018-03-23T00:55:03.796Z,71.70
2018-03-23T01:00:06.424Z,71.60
2018-03-23T01:05:09.068Z,70.80
2018-03-23T01:10:20.214Z,69.50
2018-03-23T01:15:22.850Z,70.20
2018-03-23T01:20:25.487Z,69.80
2018-03-23T01:25:28.926Z,70.60
2018-03-23T01:30:36.507Z,70.40
2018-03-23T01:35:39.109Z,71.30
2018-03-23T01:40:42.564Z,71.60
2018-03-23T01:45:45.194Z,72.00
2018-03-23T01:50:47.940Z,71.80
2018-03-23T01:55:51.310Z,72.60
2018-03-23T02:00:55.877Z,72.30
2018-03-23T02:05:58.499Z,73.10
2018-03-23T02:11:01.132Z,73.50
2018-03-23T02:16:03.829Z,73.60
2018-03-23T02:21:12.115Z,73.10
2018-03-23T02:26:14.757Z,72.70
2018-03-23T02:31:17.422Z,73.40
2018-03-23T02:36:20.050Z,74.90
2018-03-23T02:41:22.677Z,74.80
2018-03-23T02:46:25.320Z,75.70
2018-03-23T02:51:27.934Z,76.30
2018-03-23T02:56:30.626Z,75.40
2018-03-23T03:01:33.270Z,75.20
2018-03-23T03:06:35.904Z,73.20
2018-03-23T03:11:39.330Z,75.70
2018-03-23T03:16:42.720Z,75.80
2018-03-23T03:21:45.368Z,75.70
2018-03-23T03:26:48.040Z,76.20
2018-03-23T03:31:50.760Z,76.00
2018-03-23T03:36:53.377Z,76.50
2018-03-23T03:41:56.034Z,76.40
2018-03-23T03:46:58.773Z,77.00
2018-03-23T03:52:01.438Z,76.70
2018-03-23T03:57:04.087Z,77.40
2018-03-23T04:02:06.703Z,76.50
2018-03-23T04:07:09.317Z,76.30
2018-03-23T04:12:11.954Z,76.70
2018-03-23T04:17:14.614Z,76.80
2018-03-23T04:22:17.249Z,77.60
2018-03-23T04:27:19.868Z,78.30
2018-03-23T04:32:22.599Z,79.00
2018-03-23T04:37:26.034Z,77.00
2018-03-23T04:42:28.676Z,76.80
2018-03-23T04:47:31.334Z,76.60
2018-03-23T04:52:34.091Z,76.70
2018-03-23T04:57:36.784Z,75.80
2018-03-23T05:02:39.432Z,75.30
2018-03-23T05:07:42.180Z,75.20
2018-03-23T05:12:44.813Z,75.40
2018-03-23T05:17:47.484Z,75.90
2018-03-23T05:22:50.098Z,76.30
2018-03-23T05:27:52.835Z,76.90
2018-03-23T05:32:55.490Z,76.70
2018-03-23T05:37:58.220Z,78.20
2018-03-23T05:43:01.081Z,77.80
2018-03-23T05:48:03.762Z,77.00
2018-03-23T05:53:06.569Z,77.20
2018-03-23T05:58:09.300Z,78.30
2018-03-23T06:03:12.103Z,80.40
2018-03-23T06:08:14.819Z,82.90
2018-03-23T06:13:17.536Z,82.60
2018-03-23T06:18:20.294Z,82.10
2018-03-23T06:23:22.977Z,82.10
2018-03-23T06:28:25.665Z,80.80
2018-03-23T06:33:28.484Z,78.00
2018-03-23T06:38:31.335Z,77.20
2018-03-23T06:43:34.100Z,76.50
2018-03-23T06:48:37.555Z,77.20
2018-03-23T06:53:40.222Z,77.00
2018-03-23T06:58:44.470Z,77.80
2018-03-23T07:03:48.780Z,77.60
2018-03-23T07:08:52.532Z,77.00
2018-03-23T07:13:55.334Z,77.20
2018-03-23T07:18:58.149Z,76.00
2018-03-23T07:24:00.969Z,76.10
2018-03-23T07:29:05.865Z,75.10
2018-03-23T07:34:08.519Z,76.50
2018-03-23T07:39:11.203Z,74.90
2018-03-23T07:49:22.784Z,73.90
2018-03-23T07:54:25.490Z,73.70
2018-03-23T07:59:28.281Z,70.60
2018-03-23T08:04:30.943Z,71.50
2018-03-23T08:09:33.684Z,71.10
2018-03-23T08:14:36.411Z,70.70
2018-03-23T08:19:39.162Z,70.80
2018-03-23T08:24:41.988Z,70.70
2018-03-23T08:29:44.869Z,70.40
2018-03-23T08:34:47.635Z,70.40
2018-03-23T08:39:50.449Z,69.30
2018-03-23T08:44:53.259Z,69.30
2018-03-23T08:49:55.983Z,70.20
2018-03-23T08:54:58.771Z,70.30
2018-03-23T09:00:01.490Z,69.90
2018-03-23T09:05:04.209Z,68.60
2018-03-23T09:10:06.856Z,67.90
2018-03-23T09:15:09.489Z,65.90
2018-03-23T09:20:12.172Z,61.60
2018-03-23T09:30:21.813Z,64.30
2018-03-23T09:35:24.514Z,62.60
2018-03-23T09:40:28.938Z,62.80
2018-03-23T09:45:31.602Z,62.80
2018-03-23T09:50:34.492Z,63.30
2018-03-23T09:55:37.205Z,63.90
2018-03-23T10:00:39.921Z,65.00
2018-03-23T10:05:42.585Z,64.10
2018-03-23T10:10:45.327Z,63.90
2018-03-23T10:15:48.017Z,60.30
2018-03-23T10:20:50.645Z,61.00
2018-03-23T10:25:54.063Z,59.40
2018-03-23T10:30:57.754Z,58.70
2018-03-23T10:36:00.432Z,58.40
2018-03-23T10:41:03.146Z,57.60
2018-03-23T10:46:05.848Z,56.50
2018-03-23T10:51:08.593Z,56.20
2018-03-23T10:56:11.569Z,55.30
2018-03-23T11:01:19.853Z,55.40
2018-03-23T11:06:22.553Z,54.90
2018-03-23T11:11:25.223Z,54.50
2018-03-23T11:16:28.868Z,52.50
2018-03-23T11:21:31.535Z,52.20
2018-03-23T11:26:34.197Z,53.90
2018-03-23T11:31:36.840Z,53.40
2018-03-23T11:36:39.505Z,52.10
2018-03-23T11:41:42.283Z,51.90
2018-03-23T11:46:44.903Z,52.90
2018-03-23T11:51:47.556Z,53.10
2018-03-23T11:56:50.292Z,53.30
2018-03-23T12:01:52.966Z,52.90
2018-03-23T12:06:55.632Z,52.20
2018-03-23T12:11:58.296Z,51.00
2018-03-23T12:17:01.746Z,49.40
2018-03-23T12:22:04.389Z,48.90
2018-03-23T12:27:07.016Z,48.80
2018-03-23T12:32:09.782Z,49.20
2018-03-23T12:37:12.445Z,49.20
2018-03-23T12:42:15.115Z,49.40
2018-03-23T12:47:17.786Z,47.20
2018-03-23T12:52:20.476Z,46.30
2018-03-23T12:57:23.135Z,48.10
2018-03-23T13:02:25.776Z,46.60
2018-03-23T13:07:28.438Z,45.90
2018-03-23T13:12:31.095Z,47.40
2018-03-23T13:17:33.722Z,45.60
2018-03-23T13:22:36.549Z,43.40
2018-03-23T13:27:39.421Z,45.60
2018-03-23T13:32:42.141Z,46.10
2018-03-23T13:37:44.780Z,44.40
2018-03-23T13:42:47.450Z,45.20
2018-03-23T13:47:50.147Z,47.10
2018-03-23T13:52:52.882Z,46.20
2018-03-23T13:57:55.528Z,44.60
2018-03-23T14:02:58.232Z,44.40
2018-03-23T14:08:00.873Z,45.70
2018-03-23T14:13:03.526Z,45.40
2018-03-23T14:18:06.238Z,44.30
2018-03-23T14:23:08.882Z,43.30
2018-03-23T14:28:11.577Z,44.60
2018-03-23T14:33:14.252Z,43.80
2018-03-23T14:38:17.285Z,44.10
2018-03-23T14:43:20.696Z,43.30
2018-03-23T14:48:23.313Z,43.20
2018-03-23T14:53:27.241Z,47.20
2018-03-23T14:58:35.462Z,46.90
2018-03-23T15:03:38.156Z,47.30
2018-03-23T15:08:40.875Z,47.90
2018-03-23T15:13:44.362Z,47.60
2018-03-23T15:18:47.078Z,47.40
2018-03-23T15:23:49.750Z,46.30
2018-03-23T15:28:52.487Z,46.80
2018-03-23T15:33:55.237Z,46.50
2018-03-23T15:38:57.936Z,46.70
2018-03-23T15:44:00.678Z,46.00
2018-03-23T15:49:03.402Z,45.40
2018-03-23T15:54:06.101Z,45.10
2018-03-23T15:59:08.821Z,45.30
2018-03-23T16:04:11.493Z,45.30
2018-03-23T16:09:14.302Z,45.10
2018-03-23T16:14:16.969Z,45.40
2018-03-23T16:19:19.606Z,44.80
2018-03-23T16:24:22.271Z,45.10
2018-03-23T16:29:24.916Z,45.20
2018-03-23T16:34:27.542Z,45.40
2018-03-23T16:39:30.238Z,44.10
2018-03-23T16:44:32.967Z,44.30
2018-03-23T16:49:36.673Z,44.80
2018-03-23T16:54:39.367Z,44.20
2018-03-23T16:59:43.103Z,44.50
2018-03-23T17:04:48.124Z,44.30
2018-03-23T17:09:50.838Z,44.90
2018-03-23T17:14:53.580Z,45.20
2018-03-23T17:19:56.317Z,45.80
2018-03-23T17:24:58.981Z,46.50
2018-03-23T17:30:01.672Z,47.00
2018-03-23T17:35:04.277Z,46.70
2018-03-23T17:40:07.167Z,46.60
2018-03-23T17:45:10.585Z,46.50
2018-03-23T17:50:14.968Z,47.70
2018-03-23T17:55:17.672Z,47.60
2018-03-23T18:00:20.266Z,47.40
2018-03-23T18:05:22.867Z,48.50
2018-03-23T18:10:27.033Z,48.40
2018-03-23T18:15:30.984Z,48.80
2018-03-23T18:20:33.587Z,49.10
2018-03-23T18:25:36.192Z,50.30
2018-03-23T18:30:40.658Z,51.50
2018-03-23T18:35:44.033Z,51.80
2018-03-23T18:40:46.652Z,51.80
2018-03-23T18:45:49.238Z,52.20
2018-03-23T18:50:51.841Z,53.00
2018-03-23T18:55:54.858Z,53.00
2018-03-23T19:00:57.462Z,53.50
2018-03-23T19:06:00.044Z,53.80
2018-03-23T19:11:02.649Z,54.40
2018-03-23T19:16:05.587Z,54.80
2018-03-23T19:21:08.973Z,55.60
2018-03-23T19:26:11.658Z,55.50
2018-03-23T19:31:14.257Z,56.00
2018-03-23T19:36:16.837Z,56.50
2018-03-23T19:41:19.878Z,56.90
2018-03-23T19:46:23.224Z,56.80
2018-03-23T19:51:26.296Z,56.90
2018-03-23T19:56:30.306Z,57.60
2018-03-23T20:01:33.190Z,57.50
2018-03-23T20:06:39.032Z,57.50
2018-03-23T20:11:41.638Z,57.50
2018-03-23T20:16:44.255Z,57.60
2018-03-23T20:22:02.899Z,56.90
2018-03-23T20:27:11.175Z,56.80
2018-03-23T20:32:34.153Z,57.00
2018-03-23T20:37:37.857Z,57.90
2018-03-23T20:42:40.454Z,57.90
2018-03-23T20:47:43.329Z,59.00
2018-03-23T20:52:45.925Z,59.10
2018-03-23T20:57:48.965Z,59.50
2018-03-23T21:02:52.006Z,59.80
2018-03-23T21:07:55.361Z,60.30
2018-03-23T21:12:57.962Z,60.30
2018-03-23T21:18:01.030Z,60.50
2018-03-23T21:23:04.656Z,61.60
2018-03-23T21:28:08.014Z,62.40
2018-03-23T21:33:10.657Z,62.20
2018-03-23T21:38:13.237Z,62.40
2018-03-23T21:43:16.463Z,62.90
2018-03-23T21:48:19.041Z,63.10
2018-03-23T21:53:22.269Z,63.00
2018-03-23T21:58:24.848Z,63.40
2018-03-23T22:03:27.678Z,64.20
2018-03-23T22:08:30.905Z,66.10
2018-03-23T22:13:34.072Z,67.80
2018-03-23T22:18:37.488Z,68.30
2018-03-23T22:23:40.086Z,68.10
2018-03-23T22:28:42.698Z,67.50
2018-03-23T22:33:47.958Z,66.60
2018-03-23T22:38:50.572Z,66.50
2018-03-23T22:43:53.417Z,65.60
2018-03-23T22:48:56.794Z,66.30
2018-03-23T22:53:59.402Z,66.20
2018-03-23T22:59:01.968Z,67.10
2018-03-23T23:04:10.516Z,67.70
2018-03-23T23:09:13.623Z,66.90
2018-03-23T23:14:16.201Z,67.00
2018-03-23T23:19:18.889Z,66.60
2018-03-23T23:24:25.285Z,65.90
2018-03-23T23:29:28.625Z,66.50
2018-03-23T23:34:35.392Z,66.50
2018-03-23T23:39:39.214Z,67.60
2018-03-23T23:44:42.564Z,67.60
2018-03-23T23:49:46.233Z,67.50
2018-03-23T23:54:48.817Z,66.80
2018-03-23T23:59:52.938Z,66.70
